Terminal Aerodrome Forecast
Issued by NWS Indianapolis, IN

Home | Current Version | Previous Version | Text Only | Print | Product List | Glossary On
Versions: 1 2 3 4 5 6 7 8 9 10 11 12 13 14 15 16 17 18 19 20 21 22 23 24 25 26 27
156
FTUS43 KIND 242326
TAFIND
TAF
KIND 242326Z 2500/2606 13006KT P6SM BKN020
     FM250700 15008KT P6SM BKN035
     FM251000 15008KT P6SM BKN025
     FM251300 18008KT P6SM BKN020
     FM251400 19009KT P6SM BKN015
     FM251800 22011G22KT P6SM BKN010
     FM252200 24012G22KT P6SM BKN030
     FM252300 25010G20KT P6SM SCT035
     FM260400 25012G23KT P6SM BKN030=

USA.gov is the U.S. government's official web portal to all federal, state and local government web resources and services.